createdAt,value
2022-08-23T00:00:18.190Z,11.25
2022-08-23T00:02:46.949Z,12.00
2022-08-23T00:05:15.518Z,12.40
2022-08-23T00:07:45.261Z,13.63
2022-08-23T00:10:17.591Z,15.73
2022-08-23T00:12:48.720Z,12.38
2022-08-23T00:15:20.336Z,13.10
2022-08-23T00:17:51.557Z,7.85
2022-08-23T00:20:23.887Z,12.45
2022-08-23T00:22:52.271Z,15.52
2022-08-23T00:25:22.307Z,15.57
2022-08-23T00:27:50.749Z,14.60
2022-08-23T00:30:22.255Z,10.48
2022-08-23T00:32:50.598Z,15.93
2022-08-23T00:35:27.036Z,14.70
2022-08-23T00:38:31.957Z,15.13
2022-08-23T00:40:53.178Z,15.68
2022-08-23T00:43:48.167Z,19.58
2022-08-23T00:46:49.464Z,19.83
2022-08-23T00:49:19.006Z,18.88
2022-08-23T00:51:52.399Z,17.83
2022-08-23T00:54:24.572Z,19.67
2022-08-23T00:56:56.117Z,21.15
2022-08-23T00:59:27.924Z,22.58
2022-08-23T01:01:56.793Z,23.13
2022-08-23T01:04:26.699Z,17.80
2022-08-23T01:07:03.704Z,18.80
2022-08-23T01:09:34.921Z,18.23
2022-08-23T01:12:12.175Z,20.27
2022-08-23T01:14:45.724Z,14.02
2022-08-23T01:17:18.098Z,12.43
2022-08-23T01:19:54.873Z,14.95
2022-08-23T01:22:29.047Z,15.35
2022-08-23T01:25:06.264Z,16.30
2022-08-23T01:27:36.899Z,14.85
2022-08-23T01:30:06.582Z,17.25
2022-08-23T01:32:39.798Z,19.13
2022-08-23T01:35:08.786Z,21.38
2022-08-23T01:37:37.526Z,19.25
2022-08-23T01:40:09.076Z,21.15
2022-08-23T01:42:41.838Z,20.85
2022-08-23T01:45:12.223Z,22.40
2022-08-23T01:47:44.927Z,23.60
2022-08-23T01:50:14.653Z,22.33
2022-08-23T01:52:46.803Z,19.25
2022-08-23T01:55:18.158Z,18.40
2022-08-23T01:57:48.438Z,19.55
2022-08-23T02:00:22.549Z,17.73
2022-08-23T02:02:51.421Z,18.98
2022-08-23T02:05:20.481Z,16.65
2022-08-23T02:07:49.660Z,16.92
2022-08-23T02:10:20.043Z,11.70
2022-08-23T02:12:48.849Z,14.18
2022-08-23T02:15:17.778Z,14.95
2022-08-23T02:17:46.718Z,12.95
2022-08-23T02:20:19.564Z,12.02
2022-08-23T02:22:47.846Z,15.15
2022-08-23T02:25:20.507Z,17.70
2022-08-23T02:27:51.786Z,18.30
2022-08-23T02:30:22.981Z,16.40
2022-08-23T02:32:51.351Z,13.98
2022-08-23T02:35:20.382Z,12.98
2022-08-23T02:37:52.844Z,14.20
2022-08-23T02:40:23.022Z,16.35
2022-08-23T02:42:54.307Z,15.85
2022-08-23T02:45:25.358Z,15.77
2022-08-23T02:47:53.782Z,16.27
2022-08-23T02:50:22.756Z,15.18
2022-08-23T02:52:51.206Z,16.98
2022-08-23T02:55:20.466Z,11.23
2022-08-23T02:57:50.258Z,13.75
2022-08-23T03:00:22.124Z,15.68
2022-08-23T03:02:50.441Z,14.23
2022-08-23T03:05:19.256Z,14.68
2022-08-23T03:07:47.563Z,16.27
2022-08-23T03:10:16.522Z,15.23
2022-08-23T03:12:47.900Z,14.35
2022-08-23T03:15:17.820Z,13.98
2022-08-23T03:17:49.041Z,15.77
2022-08-23T03:20:17.685Z,16.80
2022-08-23T03:22:50.515Z,19.67
2022-08-23T03:25:24.172Z,14.75
2022-08-23T03:27:52.509Z,16.63
2022-08-23T03:30:24.945Z,17.88
2022-08-23T03:32:53.197Z,19.70
2022-08-23T03:35:21.557Z,20.98
2022-08-23T03:37:55.341Z,20.35
2022-08-23T03:40:24.265Z,18.00
2022-08-23T03:42:53.106Z,17.73
2022-08-23T03:45:23.152Z,15.70
2022-08-23T03:47:54.127Z,14.38
2022-08-23T03:50:23.168Z,18.08
2022-08-23T03:52:54.785Z,13.63
2022-08-23T03:55:23.040Z,16.63
2022-08-23T03:57:51.619Z,14.50
2022-08-23T04:00:20.489Z,14.40
2022-08-23T04:02:51.187Z,13.15
2022-08-23T04:05:19.920Z,16.08
2022-08-23T04:07:48.267Z,12.93
2022-08-23T04:10:16.550Z,15.02
2022-08-23T04:12:47.692Z,20.83
2022-08-23T04:15:21.508Z,14.50
2022-08-23T04:17:51.364Z,16.23
2022-08-23T04:20:19.856Z,20.02
2022-08-23T04:22:53.508Z,23.48
2022-08-23T04:25:33.072Z,19.63
2022-08-23T04:28:06.588Z,18.48
2022-08-23T04:30:35.012Z,19.00
2022-08-23T04:33:10.651Z,20.52
2022-08-23T04:35:43.073Z,23.08
2022-08-23T04:38:24.445Z,15.13
2022-08-23T04:41:11.218Z,12.93
2022-08-23T04:43:40.001Z,12.80
2022-08-23T04:46:11.189Z,12.02
2022-08-23T04:48:44.587Z,13.25
2022-08-23T04:51:17.097Z,14.27
2022-08-23T04:53:45.583Z,12.75
2022-08-23T04:56:17.171Z,16.10
2022-08-23T04:58:45.872Z,13.90
2022-08-23T05:01:16.310Z,14.40
2022-08-23T05:03:46.260Z,13.77
2022-08-23T05:06:15.011Z,13.10
2022-08-23T05:08:43.419Z,13.43
2022-08-23T05:11:12.741Z,13.98
2022-08-23T05:13:43.710Z,10.60
2022-08-23T05:16:12.182Z,12.32
2022-08-23T05:18:43.405Z,13.05
2022-08-23T05:21:18.263Z,12.75
2022-08-23T05:23:50.967Z,11.38
2022-08-23T05:26:23.665Z,11.73
2022-08-23T05:28:52.264Z,11.38
2022-08-23T05:31:25.156Z,11.52
2022-08-23T05:33:53.997Z,10.68
2022-08-23T05:36:23.825Z,10.18
2022-08-23T05:38:53.519Z,11.13
2022-08-23T05:41:37.769Z,11.32
2022-08-23T05:46:36.091Z,10.45
2022-08-23T05:49:05.141Z,11.50
2022-08-23T05:51:39.003Z,10.00
2022-08-23T05:54:09.698Z,13.17
2022-08-23T05:56:41.595Z,9.82
2022-08-23T05:59:15.344Z,6.43
2022-08-23T06:01:44.630Z,10.23
2022-08-23T06:04:14.441Z,9.70
2022-08-23T06:06:48.668Z,9.55
2022-08-23T06:09:19.575Z,9.68
2022-08-23T06:11:49.563Z,9.65
2022-08-23T06:14:17.987Z,9.23
2022-08-23T06:16:53.675Z,9.75
2022-08-23T06:19:23.990Z,10.65
2022-08-23T06:21:54.162Z,10.95
2022-08-23T06:24:23.464Z,10.85
2022-08-23T06:26:54.456Z,12.85
2022-08-23T06:29:22.913Z,10.85
2022-08-23T06:31:52.901Z,6.75
2022-08-23T06:34:23.904Z,3.88
2022-08-23T06:36:56.807Z,12.63
2022-08-23T06:39:34.425Z,10.45
2022-08-23T06:42:28.041Z,12.38
2022-08-23T06:44:56.696Z,10.30
2022-08-23T06:47:28.095Z,10.68
2022-08-23T06:49:58.387Z,9.43
2022-08-23T06:52:28.615Z,6.60
2022-08-23T06:54:59.811Z,11.38
2022-08-23T06:57:28.264Z,7.90
2022-08-23T06:59:56.504Z,6.68
2022-08-23T07:02:27.973Z,10.25
2022-08-23T07:04:56.278Z,6.60
2022-08-23T07:07:24.525Z,9.05
2022-08-23T07:10:10.493Z,7.70
2022-08-23T07:12:42.688Z,11.43
2022-08-23T07:15:12.845Z,10.18
2022-08-23T07:17:43.831Z,10.00
2022-08-23T07:20:12.272Z,8.18
2022-08-23T07:22:41.119Z,8.25
2022-08-23T07:25:11.209Z,5.43
2022-08-23T07:27:39.665Z,5.63
2022-08-23T07:30:09.485Z,7.07
2022-08-23T07:32:37.822Z,6.28
2022-08-23T07:35:07.369Z,8.10
2022-08-23T07:37:35.682Z,6.47
2022-08-23T07:40:04.003Z,4.97
2022-08-23T07:42:36.833Z,6.10
2022-08-23T07:45:10.046Z,7.78
2022-08-23T07:47:48.256Z,7.60
2022-08-23T07:50:18.656Z,5.13
2022-08-23T07:52:47.472Z,6.43
2022-08-23T07:55:16.043Z,6.45
2022-08-23T07:57:47.532Z,5.53
2022-08-23T08:00:16.800Z,5.22
2022-08-23T08:02:45.103Z,7.03
2022-08-23T08:05:13.485Z,3.42
2022-08-23T08:07:45.269Z,6.78
2022-08-23T08:10:13.640Z,6.63
2022-08-23T08:12:42.069Z,6.53
2022-08-23T08:15:12.524Z,4.82
2022-08-23T08:17:40.809Z,5.70
2022-08-23T08:20:10.507Z,5.93
2022-08-23T08:22:38.882Z,5.72
2022-08-23T08:25:08.171Z,6.07
2022-08-23T08:27:36.640Z,5.43
2022-08-23T08:30:05.392Z,5.63
2022-08-23T08:32:35.135Z,4.07
2022-08-23T08:35:03.647Z,5.63
2022-08-23T08:37:36.500Z,3.78
2022-08-23T08:40:05.698Z,3.88
2022-08-23T08:42:55.516Z,4.40
2022-08-23T08:45:27.227Z,4.03
2022-08-23T08:48:03.879Z,5.60
2022-08-23T08:50:40.992Z,5.07
2022-08-23T08:53:15.235Z,5.03
2022-08-23T08:55:50.875Z,4.15
2022-08-23T08:58:29.024Z,3.65
2022-08-23T09:00:58.399Z,4.75
2022-08-23T09:03:34.063Z,4.82
2022-08-23T09:06:13.415Z,4.85
2022-08-23T09:08:56.466Z,5.35
2022-08-23T09:11:35.431Z,4.85
2022-08-23T09:14:34.832Z,3.53
2022-08-23T09:17:06.480Z,4.95
2022-08-23T09:19:39.416Z,4.78
2022-08-23T09:22:13.693Z,5.45
2022-08-23T09:24:42.547Z,6.05
2022-08-23T09:27:12.039Z,5.07
2022-08-23T09:29:52.726Z,5.25
2022-08-23T09:32:33.091Z,5.18
2022-08-23T09:35:11.537Z,4.95
2022-08-23T09:38:05.660Z,5.05
2022-08-23T09:40:41.978Z,5.05
2022-08-23T09:43:14.432Z,4.88
2022-08-23T09:45:56.985Z,4.22
2022-08-23T09:48:36.974Z,5.05
2022-08-23T09:51:16.930Z,4.20
2022-08-23T09:53:50.253Z,4.60
2022-08-23T09:56:24.360Z,3.92
2022-08-23T09:58:53.787Z,5.78
2022-08-23T10:01:25.899Z,9.73
2022-08-23T10:04:13.290Z,6.25
2022-08-23T10:06:46.792Z,20.95
2022-08-23T10:09:26.789Z,4.30
2022-08-23T10:11:56.891Z,5.88
2022-08-23T10:14:28.778Z,5.38
2022-08-23T10:17:11.241Z,5.07
2022-08-23T10:19:49.950Z,6.40
2022-08-23T10:22:23.651Z,6.20
2022-08-23T10:24:58.831Z,4.22
2022-08-23T10:27:53.910Z,9.35
2022-08-23T10:30:25.261Z,5.20
2022-08-23T10:33:03.558Z,8.30
2022-08-23T10:35:40.186Z,9.23
2022-08-23T10:38:32.061Z,11.10
2022-08-23T10:41:04.481Z,6.53
2022-08-23T10:43:44.290Z,6.57
2022-08-23T10:46:14.229Z,5.95
2022-08-23T10:48:51.919Z,4.53
2022-08-23T10:51:31.722Z,4.90
2022-08-23T10:54:07.703Z,5.50
2022-08-23T10:56:42.999Z,5.25
2022-08-23T10:59:24.148Z,6.47
2022-08-23T11:01:58.265Z,6.47
2022-08-23T11:04:35.083Z,6.85
2022-08-23T11:07:15.903Z,6.47
2022-08-23T11:09:59.621Z,5.93
2022-08-23T11:12:34.446Z,5.57
2022-08-23T11:15:19.740Z,6.10
2022-08-23T11:17:58.612Z,5.55
2022-08-23T11:21:02.040Z,6.15
2022-08-23T11:23:56.123Z,5.00
2022-08-23T11:27:07.136Z,5.85
2022-08-23T11:29:39.388Z,7.28
2022-08-23T11:32:32.779Z,6.60
2022-08-23T11:35:09.858Z,9.60
2022-08-23T11:38:05.104Z,9.95
2022-08-23T11:40:57.235Z,6.95
2022-08-23T11:43:30.609Z,7.45
2022-08-23T11:46:35.954Z,11.85
2022-08-23T11:49:49.917Z,8.70
2022-08-23T11:52:40.236Z,7.47
2022-08-23T11:55:30.031Z,7.88
2022-08-23T11:58:18.446Z,8.95
2022-08-23T12:01:06.391Z,6.75
2022-08-23T12:03:53.273Z,10.60
2022-08-23T12:06:41.631Z,8.90
2022-08-23T12:09:31.399Z,8.38
2022-08-23T12:12:24.365Z,6.35
2022-08-23T12:14:58.932Z,8.35
2022-08-23T12:18:08.452Z,8.27
2022-08-23T12:20:41.217Z,11.35
2022-08-23T12:23:20.488Z,8.63
2022-08-23T12:26:06.830Z,11.95
2022-08-23T12:28:45.212Z,10.20
2022-08-23T12:31:30.167Z,9.05
2022-08-23T12:34:20.037Z,11.30
2022-08-23T12:37:00.955Z,9.73
2022-08-23T12:39:33.735Z,9.93
2022-08-23T12:42:08.230Z,10.35
2022-08-23T12:44:36.655Z,19.10
2022-08-23T12:47:16.841Z,45.67
2022-08-23T12:49:56.945Z,125.43
2022-08-23T12:52:32.960Z,154.48
2022-08-23T12:55:01.893Z,57.63
2022-08-23T12:57:38.689Z,77.88
2022-08-23T13:00:18.511Z,14.25
2022-08-23T13:02:51.747Z,52.38
2022-08-23T13:05:31.883Z,54.42
2022-08-23T13:08:04.320Z,5.68
2022-08-23T13:10:32.989Z,118.63
2022-08-23T13:13:02.090Z,44.60
2022-08-23T13:15:48.960Z,42.40
2022-08-23T13:18:33.873Z,27.35
2022-08-23T13:23:49.518Z,42.22
2022-08-23T13:26:31.079Z,21.10
2022-08-23T13:29:11.502Z,41.47
2022-08-23T13:31:56.385Z,33.22
2022-08-23T13:34:35.936Z,30.75
2022-08-23T13:37:06.636Z,15.27
2022-08-23T13:39:36.831Z,6.85
2022-08-23T13:42:05.261Z,5.78
2022-08-23T13:44:34.764Z,11.52
2022-08-23T13:47:03.610Z,9.88
2022-08-23T13:49:40.673Z,6.40
2022-08-23T13:55:06.537Z,6.50
2022-08-23T13:57:37.377Z,5.10
2022-08-23T14:00:09.321Z,6.43
2022-08-23T14:02:38.606Z,5.38
2022-08-23T14:05:09.605Z,5.68
2022-08-23T14:07:40.994Z,6.38
2022-08-23T14:10:11.533Z,4.90
2022-08-23T14:12:40.192Z,5.50
2022-08-23T14:15:12.848Z,4.07
2022-08-23T14:17:44.435Z,4.95
2022-08-23T14:23:12.184Z,4.40
2022-08-23T14:25:42.637Z,4.90
2022-08-23T14:28:11.178Z,5.00
2022-08-23T14:30:39.653Z,3.28
2022-08-23T14:33:08.266Z,2.92
2022-08-23T14:35:39.517Z,3.78
2022-08-23T14:38:12.504Z,3.85
2022-08-23T14:40:51.428Z,4.68
2022-08-23T14:43:20.675Z,4.05
2022-08-23T14:45:49.519Z,4.97
2022-08-23T14:48:21.246Z,8.05
2022-08-23T14:50:49.535Z,5.00
2022-08-23T14:53:20.291Z,5.18
2022-08-23T14:56:12.344Z,4.95
2022-08-23T14:58:42.867Z,9.10
2022-08-23T15:01:12.463Z,8.80
2022-08-23T15:03:43.863Z,16.42
2022-08-23T15:06:13.498Z,4.75
2022-08-23T15:08:42.311Z,4.32
2022-08-23T15:14:05.159Z,4.85
2022-08-23T15:16:33.630Z,7.13
2022-08-23T15:19:02.160Z,4.25
2022-08-23T15:21:33.108Z,2.97
2022-08-23T15:24:02.625Z,3.80
2022-08-23T15:26:35.927Z,5.15
2022-08-23T15:29:04.787Z,4.10
2022-08-23T15:31:33.657Z,3.40
2022-08-23T15:34:04.757Z,4.53
2022-08-23T15:36:41.139Z,4.35
2022-08-23T15:39:12.624Z,3.75
2022-08-23T15:41:42.473Z,3.97
2022-08-23T15:44:11.050Z,3.92
2022-08-23T15:46:47.266Z,3.50
2022-08-23T15:49:20.084Z,2.92
2022-08-23T15:51:51.343Z,3.85
2022-08-23T15:54:19.846Z,2.90
2022-08-23T15:56:53.967Z,3.25
2022-08-23T15:59:22.846Z,4.00
2022-08-23T16:01:51.093Z,11.50
2022-08-23T16:04:19.398Z,3.67
2022-08-23T16:06:50.663Z,4.70
2022-08-23T16:09:22.356Z,5.32
2022-08-23T16:11:53.153Z,3.58
2022-08-23T16:14:23.525Z,11.15
2022-08-23T16:16:54.310Z,4.53
2022-08-23T16:19:23.064Z,5.30
2022-08-23T16:21:53.203Z,4.72
2022-08-23T16:24:22.460Z,4.30
2022-08-23T16:26:55.129Z,4.20
2022-08-23T16:29:24.061Z,5.93
2022-08-23T16:31:52.395Z,4.72
2022-08-23T16:34:21.645Z,6.07
2022-08-23T16:36:58.894Z,5.07
2022-08-23T16:39:27.993Z,4.22
2022-08-23T16:42:01.499Z,4.20
2022-08-23T16:44:30.122Z,5.53
2022-08-23T16:46:59.185Z,5.72
2022-08-23T16:49:30.263Z,7.43
2022-08-23T16:52:01.417Z,6.15
2022-08-23T16:54:29.745Z,6.70
2022-08-23T16:57:05.668Z,4.15
2022-08-23T16:59:39.726Z,5.40
2022-08-23T17:02:23.665Z,3.47
2022-08-23T17:04:54.755Z,6.90
2022-08-23T17:07:23.180Z,3.65
2022-08-23T17:09:54.263Z,4.78
2022-08-23T17:12:24.093Z,4.53
2022-08-23T17:14:57.431Z,5.28
2022-08-23T17:17:28.407Z,5.68
2022-08-23T17:19:56.748Z,4.82
2022-08-23T17:22:27.785Z,3.97
2022-08-23T17:24:56.136Z,3.92
2022-08-23T17:27:26.054Z,3.60
2022-08-23T17:29:54.623Z,4.15
2022-08-23T17:32:23.337Z,4.63
2022-08-23T17:34:54.526Z,5.75
2022-08-23T17:37:25.983Z,4.95
2022-08-23T17:39:54.552Z,4.30
2022-08-23T17:42:27.107Z,4.60
2022-08-23T17:44:58.598Z,4.28
2022-08-23T17:47:30.066Z,3.78
2022-08-23T17:50:00.187Z,3.10
2022-08-23T17:52:28.964Z,4.15
2022-08-23T17:55:00.313Z,4.30
2022-08-23T17:57:32.811Z,4.10
2022-08-23T18:00:02.268Z,4.47
2022-08-23T18:02:30.681Z,4.22
2022-08-23T18:04:59.063Z,4.00
2022-08-23T18:07:27.579Z,4.30
2022-08-23T18:09:58.490Z,5.00
2022-08-23T18:12:27.107Z,4.20
2022-08-23T18:14:57.186Z,3.92
2022-08-23T18:17:25.268Z,4.75
2022-08-23T18:19:56.247Z,4.45
2022-08-23T18:22:24.388Z,4.43
2022-08-23T18:24:55.336Z,4.38
2022-08-23T18:27:42.341Z,4.15
2022-08-23T18:30:13.645Z,4.07
2022-08-23T18:32:44.959Z,4.85
2022-08-23T18:35:16.075Z,4.07
2022-08-23T18:37:44.769Z,3.78
2022-08-23T18:40:14.396Z,3.10
2022-08-23T18:42:45.711Z,4.47
2022-08-23T18:45:15.627Z,4.00
2022-08-23T18:47:46.893Z,4.20
2022-08-23T18:50:16.619Z,4.10
2022-08-23T18:52:45.051Z,4.05
2022-08-23T18:55:17.777Z,4.25
2022-08-23T18:57:48.858Z,4.60
2022-08-23T19:00:18.975Z,4.30
2022-08-23T19:02:49.867Z,4.82
2022-08-23T19:05:18.187Z,4.40
2022-08-23T19:07:46.549Z,4.40
2022-08-23T19:10:19.705Z,5.00
2022-08-23T19:12:54.170Z,5.30
2022-08-23T19:15:25.080Z,5.38
2022-08-23T19:17:58.281Z,5.80
2022-08-23T19:20:30.565Z,5.32
2022-08-23T19:22:59.148Z,7.10
2022-08-23T19:25:31.697Z,5.53
2022-08-23T19:28:00.262Z,6.45
2022-08-23T19:30:30.090Z,6.63
2022-08-23T19:32:58.461Z,6.03
2022-08-23T19:35:30.535Z,6.65
2022-08-23T19:37:59.210Z,6.25
2022-08-23T19:40:28.245Z,6.80
2022-08-23T19:43:00.616Z,6.03
2022-08-23T19:45:31.230Z,7.43
2022-08-23T19:48:00.896Z,6.82
2022-08-23T19:50:29.555Z,7.07
2022-08-23T19:53:00.923Z,6.72
2022-08-23T19:55:34.866Z,6.80
2022-08-23T19:58:06.125Z,7.78
2022-08-23T20:00:39.198Z,7.28
2022-08-23T20:03:09.476Z,7.50
2022-08-23T20:05:38.405Z,6.85
2022-08-23T20:08:09.542Z,7.10
2022-08-23T20:10:37.965Z,7.43
2022-08-23T20:13:09.194Z,7.25
2022-08-23T20:15:42.364Z,8.43
2022-08-23T20:18:10.977Z,7.70
2022-08-23T20:20:39.482Z,8.50
2022-08-23T20:23:25.570Z,8.85
2022-08-23T20:25:54.439Z,8.30
2022-08-23T20:28:26.265Z,7.93
2022-08-23T20:30:57.252Z,8.60
2022-08-23T20:33:28.366Z,8.65
2022-08-23T20:35:56.693Z,8.23
2022-08-23T20:38:33.282Z,8.90
2022-08-23T20:41:05.446Z,9.50
2022-08-23T20:43:34.571Z,9.63
2022-08-23T20:46:05.427Z,10.55
2022-08-23T20:48:34.545Z,10.70
2022-08-23T20:51:03.907Z,9.95
2022-08-23T20:53:32.875Z,9.25
2022-08-23T20:56:01.765Z,8.65
2022-08-23T20:58:30.543Z,9.00
2022-08-23T21:00:59.166Z,8.35
2022-08-23T21:03:30.076Z,8.07
2022-08-23T21:06:04.765Z,8.50
2022-08-23T21:08:33.381Z,9.55
2022-08-23T21:11:03.324Z,8.95
2022-08-23T21:13:31.568Z,8.90
2022-08-23T21:16:00.533Z,10.93
2022-08-23T21:18:30.410Z,9.90
2022-08-23T21:20:59.562Z,9.10
2022-08-23T21:23:28.253Z,9.32
2022-08-23T21:25:58.048Z,9.90
2022-08-23T21:28:27.560Z,10.93
2022-08-23T21:30:56.413Z,10.63
2022-08-23T21:33:26.005Z,9.95
2022-08-23T21:36:04.632Z,11.25
2022-08-23T21:38:33.340Z,11.43
2022-08-23T21:41:10.422Z,10.73
2022-08-23T21:43:42.148Z,12.48
2022-08-23T21:46:13.525Z,11.13
2022-08-23T21:48:42.078Z,11.13
2022-08-23T21:51:11.849Z,12.57
2022-08-23T21:53:40.282Z,9.73
2022-08-23T21:56:08.874Z,11.45
2022-08-23T21:58:37.253Z,9.98
2022-08-23T22:01:06.624Z,9.63
2022-08-23T22:03:40.478Z,10.85
2022-08-23T22:06:18.028Z,9.52
2022-08-23T22:08:49.520Z,11.15
2022-08-23T22:11:17.985Z,11.10
2022-08-23T22:13:46.396Z,11.23
2022-08-23T22:16:15.101Z,11.85
2022-08-23T22:18:46.270Z,12.18
2022-08-23T22:21:16.031Z,11.80
2022-08-23T22:23:47.354Z,13.02
2022-08-23T22:26:15.867Z,12.82
2022-08-23T22:28:45.103Z,12.65
2022-08-23T22:31:16.244Z,12.48
2022-08-23T22:33:50.573Z,10.07
2022-08-23T22:36:22.906Z,7.40
2022-08-23T22:38:52.282Z,8.93
2022-08-23T22:41:25.736Z,8.35
2022-08-23T22:43:54.944Z,9.65
2022-08-23T22:46:23.647Z,10.00
2022-08-23T22:48:53.737Z,10.73
2022-08-23T22:51:32.220Z,10.85
2022-08-23T22:54:05.473Z,14.07
2022-08-23T22:56:38.807Z,16.73
2022-08-23T22:59:07.931Z,13.50
2022-08-23T23:01:44.230Z,13.57
2022-08-23T23:04:15.248Z,14.88
2022-08-23T23:06:46.590Z,16.23
2022-08-23T23:09:15.188Z,14.20
2022-08-23T23:11:44.325Z,13.02
2022-08-23T23:14:17.036Z,13.30
2022-08-23T23:16:46.039Z,16.23
2022-08-23T23:19:33.927Z,14.00
2022-08-23T23:22:07.655Z,16.75
2022-08-23T23:24:43.298Z,14.57
2022-08-23T23:27:11.637Z,15.10
2022-08-23T23:29:40.151Z,15.88
2022-08-23T23:32:08.794Z,13.05
2022-08-23T23:34:38.120Z,16.67
2022-08-23T23:37:07.980Z,14.68
2022-08-23T23:39:38.869Z,14.98
2022-08-23T23:42:07.649Z,14.93
2022-08-23T23:44:36.126Z,15.68
2022-08-23T23:47:04.616Z,15.13
2022-08-23T23:49:33.639Z,16.98
2022-08-23T23:52:03.383Z,15.50
2022-08-23T23:54:35.812Z,14.65
2022-08-23T23:57:04.388Z,15.30
2022-08-23T23:59:33.720Z,16.88
